createdAt,value
2022-12-03T00:01:22.403Z,95166.00
2022-12-03T00:03:51.796Z,95171.28
2022-12-03T00:06:19.779Z,95171.84
2022-12-03T00:08:47.800Z,95173.56
2022-12-03T00:11:15.681Z,95182.22
2022-12-03T00:13:43.518Z,95189.38
2022-12-03T00:16:11.466Z,95191.91
2022-12-03T00:18:39.381Z,95181.56
2022-12-03T00:21:08.713Z,95199.06
2022-12-03T00:23:41.776Z,95185.88
2022-12-03T00:26:10.254Z,95188.50
2022-12-03T00:28:38.231Z,95182.28
2022-12-03T00:31:06.522Z,95194.97
2022-12-03T00:33:34.520Z,95194.03
2022-12-03T00:36:02.463Z,95193.31
2022-12-03T00:38:31.726Z,95197.78
2022-12-03T00:40:59.642Z,95209.28
2022-12-03T00:43:27.583Z,95202.59
2022-12-03T00:45:55.466Z,95204.34
2022-12-03T00:48:23.343Z,95198.91
2022-12-03T00:50:51.412Z,95204.22
2022-12-03T00:53:19.547Z,95204.94
2022-12-03T00:55:50.661Z,95199.91
2022-12-03T00:58:18.956Z,95218.38
2022-12-03T01:00:46.975Z,95200.53
2022-12-03T01:03:14.907Z,95217.78
2022-12-03T01:05:42.906Z,95207.31
2022-12-03T01:08:11.521Z,95220.00
2022-12-03T01:10:39.428Z,95218.03
2022-12-03T01:13:08.788Z,95222.63
2022-12-03T01:15:36.752Z,95221.16
2022-12-03T01:18:04.697Z,95231.66
2022-12-03T01:20:32.625Z,95227.84
2022-12-03T01:23:00.545Z,95226.63
2022-12-03T01:25:28.431Z,95229.47
2022-12-03T01:27:56.312Z,95241.91
2022-12-03T01:30:25.574Z,95244.53
2022-12-03T01:32:52.497Z,95240.78
2022-12-03T01:35:20.366Z,95243.66
2022-12-03T01:37:48.231Z,95236.25
2022-12-03T01:40:20.974Z,95241.28
2022-12-03T01:42:49.106Z,95248.69
2022-12-03T01:45:23.656Z,95237.81
2022-12-03T01:47:53.001Z,95236.63
2022-12-03T01:50:24.733Z,95231.16
2022-12-03T01:52:55.274Z,95238.25
2022-12-03T01:55:25.937Z,95246.38
2022-12-03T01:57:56.875Z,95238.66
2022-12-03T02:00:27.408Z,95244.66
2022-12-03T02:02:58.370Z,95234.78
2022-12-03T02:05:27.794Z,95236.06
2022-12-03T02:07:56.528Z,95230.41
2022-12-03T02:10:27.376Z,95239.72
2022-12-03T02:12:59.054Z,95250.16
2022-12-03T02:15:27.214Z,95243.38
2022-12-03T02:17:57.130Z,95241.53
2022-12-03T02:20:25.209Z,95237.56
2022-12-03T02:23:01.154Z,95242.88
2022-12-03T02:25:33.342Z,95241.47
2022-12-03T02:28:02.665Z,95233.47
2022-12-03T02:30:32.195Z,95231.97
2022-12-03T02:33:01.086Z,95241.34
2022-12-03T02:35:33.173Z,95233.84
2022-12-03T02:38:06.092Z,95236.88
2022-12-03T02:40:35.679Z,95230.59
2022-12-03T02:43:04.778Z,95229.34
2022-12-03T02:45:35.626Z,95240.91
2022-12-03T02:48:07.707Z,95241.16
2022-12-03T02:50:39.409Z,95245.81
2022-12-03T02:53:10.587Z,95240.34
2022-12-03T02:55:40.576Z,95235.06
2022-12-03T02:58:08.539Z,95219.44
2022-12-03T03:00:37.321Z,95224.91
2022-12-03T03:03:07.592Z,95222.91
2022-12-03T03:05:37.855Z,95233.22
2022-12-03T03:08:06.863Z,95238.59
2022-12-03T03:10:36.497Z,95222.34
2022-12-03T03:13:09.912Z,95238.25
2022-12-03T03:15:38.016Z,95233.56
2022-12-03T03:18:06.850Z,95232.66
2022-12-03T03:20:34.912Z,95224.41
2022-12-03T03:23:08.017Z,95227.06
2022-12-03T03:25:35.927Z,95227.25
2022-12-03T03:28:05.661Z,95228.91
2022-12-03T03:30:34.902Z,95226.25
2022-12-03T03:33:03.049Z,95219.25
2022-12-03T03:35:31.117Z,95220.19
2022-12-03T03:37:59.986Z,95226.41
2022-12-03T03:40:28.538Z,95233.69
2022-12-03T03:42:57.879Z,95239.97
2022-12-03T03:45:29.653Z,95236.00
2022-12-03T03:47:59.272Z,95239.59
2022-12-03T03:50:29.313Z,95232.25
2022-12-03T03:52:58.582Z,95247.06
2022-12-03T03:55:26.759Z,95246.78
2022-12-03T03:57:54.811Z,95238.88
2022-12-03T04:00:22.933Z,95237.31
2022-12-03T04:02:53.545Z,95228.03
2022-12-03T04:05:24.127Z,95236.75
2022-12-03T04:07:52.193Z,95227.66
2022-12-03T04:10:34.067Z,95245.31
2022-12-03T04:13:02.760Z,95247.44
2022-12-03T04:15:30.972Z,95251.31
2022-12-03T04:18:17.696Z,95255.00
2022-12-03T04:20:45.608Z,95263.69
2022-12-03T04:23:12.554Z,95264.09
2022-12-03T04:25:57.894Z,95262.75
2022-12-03T04:28:43.323Z,95260.19
2022-12-03T04:31:28.481Z,95250.25
2022-12-03T04:34:15.130Z,95257.00
2022-12-03T04:36:43.067Z,95264.00
2022-12-03T04:39:10.963Z,95265.91
2022-12-03T04:41:38.829Z,95268.41
2022-12-03T04:44:24.173Z,95272.25
2022-12-03T04:46:52.048Z,95261.00
2022-12-03T04:49:21.406Z,95260.63
2022-12-03T04:51:49.529Z,95259.81
2022-12-03T04:54:17.374Z,95254.66
2022-12-03T04:56:45.513Z,95246.19
2022-12-03T04:59:16.422Z,95254.69
2022-12-03T05:01:45.986Z,95253.22
2022-12-03T05:04:14.460Z,95257.06
2022-12-03T05:06:43.840Z,95261.91
2022-12-03T05:09:12.651Z,95258.41
2022-12-03T05:11:41.066Z,95258.88
2022-12-03T05:14:09.388Z,95274.53
2022-12-03T05:16:37.443Z,95272.09
2022-12-03T05:19:06.393Z,95268.06
2022-12-03T05:21:34.295Z,95273.94
2022-12-03T05:24:03.940Z,95278.44
2022-12-03T05:26:32.034Z,95278.03
2022-12-03T05:28:59.974Z,95275.84
2022-12-03T05:31:27.894Z,95273.56
2022-12-03T05:33:55.846Z,95277.34
2022-12-03T05:36:25.351Z,95277.53
2022-12-03T05:38:53.236Z,95283.00
2022-12-03T05:41:39.959Z,95279.19
2022-12-03T05:44:07.872Z,95277.25
2022-12-03T05:46:35.849Z,95284.00
2022-12-03T05:49:03.894Z,95287.69
2022-12-03T05:51:31.819Z,95290.34
2022-12-03T05:53:59.701Z,95285.78
2022-12-03T05:56:28.985Z,95280.03
2022-12-03T05:58:56.827Z,95296.41
2022-12-03T06:01:25.505Z,95296.16
2022-12-03T06:03:53.665Z,95299.34
2022-12-03T06:06:21.694Z,95302.28
2022-12-03T06:08:49.974Z,95292.94
2022-12-03T06:11:17.983Z,95305.34
2022-12-03T06:13:47.438Z,95322.91
2022-12-03T06:16:15.504Z,95302.88
2022-12-03T06:18:44.046Z,95322.91
2022-12-03T06:21:12.039Z,95296.44
2022-12-03T06:23:44.760Z,95318.84
2022-12-03T06:26:13.072Z,95317.25
2022-12-03T06:28:45.708Z,95313.72
2022-12-03T06:31:15.317Z,95327.25
2022-12-03T06:33:43.485Z,95333.94
2022-12-03T06:36:11.621Z,95317.22
2022-12-03T06:38:39.837Z,95322.06
2022-12-03T06:41:07.848Z,95331.97
2022-12-03T06:43:35.851Z,95333.25
2022-12-03T06:46:04.052Z,95326.47
2022-12-03T06:48:33.616Z,95326.09
2022-12-03T06:51:01.639Z,95308.94
2022-12-03T06:53:29.856Z,95327.75
2022-12-03T06:55:57.844Z,95314.41
2022-12-03T06:58:25.919Z,95334.72
2022-12-03T07:00:54.007Z,95323.91
2022-12-03T07:03:22.116Z,95327.16
2022-12-03T07:05:51.636Z,95335.31
2022-12-03T07:08:19.773Z,95330.25
2022-12-03T07:10:47.895Z,95349.88
2022-12-03T07:13:16.119Z,95343.34
2022-12-03T07:15:44.103Z,95353.53
2022-12-03T07:18:12.221Z,95353.31
2022-12-03T07:20:40.634Z,95344.16
2022-12-03T07:23:10.426Z,95364.34
2022-12-03T07:25:38.486Z,95358.44
2022-12-03T07:28:06.524Z,95357.50
2022-12-03T07:30:35.981Z,95347.28
2022-12-03T07:33:03.984Z,95346.50
2022-12-03T07:35:32.010Z,95357.31
2022-12-03T07:38:00.037Z,95357.78
2022-12-03T07:40:29.785Z,95362.72
2022-12-03T07:42:57.819Z,95365.38
2022-12-03T07:45:25.899Z,95351.94
2022-12-03T07:47:53.846Z,95353.19
2022-12-03T07:50:21.953Z,95361.63
2022-12-03T07:52:49.992Z,95368.03
2022-12-03T07:55:18.129Z,95368.78
2022-12-03T07:57:47.682Z,95365.53
2022-12-03T08:00:16.917Z,95355.81
2022-12-03T08:02:45.043Z,95346.56
2022-12-03T08:05:13.161Z,95355.31
2022-12-03T08:07:41.209Z,95347.59
2022-12-03T08:10:09.571Z,95359.19
2022-12-03T08:12:42.959Z,95363.28
2022-12-03T08:15:18.389Z,95370.78
2022-12-03T08:17:48.192Z,95367.94
2022-12-03T08:20:18.872Z,95361.13
2022-12-03T08:22:49.383Z,95366.97
2022-12-03T08:25:22.969Z,95363.00
2022-12-03T08:27:52.417Z,95389.91
2022-12-03T08:30:22.137Z,95387.28
2022-12-03T08:32:50.576Z,95390.59
2022-12-03T08:35:23.907Z,95383.47
2022-12-03T08:37:58.932Z,95395.47
2022-12-03T08:40:35.471Z,95403.75
2022-12-03T08:43:08.029Z,95396.06
2022-12-03T08:45:42.000Z,95396.66
2022-12-03T08:48:34.115Z,95392.31
2022-12-03T08:51:05.805Z,95399.38
2022-12-03T08:53:37.019Z,95396.78
2022-12-03T08:56:14.274Z,95401.94
2022-12-03T08:58:44.404Z,95405.31
2022-12-03T09:01:35.346Z,95397.47
2022-12-03T09:04:21.580Z,95389.22
2022-12-03T09:06:50.188Z,95388.41
2022-12-03T09:09:18.536Z,95395.38
2022-12-03T09:11:47.098Z,95400.91
2022-12-03T09:14:18.467Z,95397.56
2022-12-03T09:16:49.233Z,95398.63
2022-12-03T09:19:17.498Z,95397.53
2022-12-03T09:21:45.435Z,95397.81
2022-12-03T09:24:13.859Z,95400.31
2022-12-03T09:26:41.951Z,95396.72
2022-12-03T09:29:12.397Z,95398.09
2022-12-03T09:31:41.189Z,95404.75
2022-12-03T09:34:11.043Z,95402.84
2022-12-03T09:36:39.266Z,95388.84
2022-12-03T09:39:07.768Z,95399.34
2022-12-03T09:41:35.870Z,95394.00
2022-12-03T09:44:05.229Z,95397.56
2022-12-03T09:46:35.548Z,95388.88
2022-12-03T09:49:04.738Z,95396.28
2022-12-03T09:51:37.059Z,95388.53
2022-12-03T09:54:07.633Z,95390.72
2022-12-03T09:56:38.739Z,95391.53
2022-12-03T09:59:08.236Z,95376.81
2022-12-03T10:01:36.295Z,95390.16
2022-12-03T10:04:04.693Z,95372.88
2022-12-03T10:06:34.257Z,95377.53
2022-12-03T10:09:02.565Z,95360.66
2022-12-03T10:11:32.186Z,95375.59
2022-12-03T10:14:00.323Z,95379.56
2022-12-03T10:16:30.523Z,95363.38
2022-12-03T10:19:02.103Z,95357.78
2022-12-03T10:21:32.578Z,95359.97
2022-12-03T10:24:29.681Z,95365.94
2022-12-03T10:26:59.979Z,95348.81
2022-12-03T10:29:34.030Z,95362.44
2022-12-03T10:32:04.086Z,95360.00
2022-12-03T10:34:33.717Z,95362.44
2022-12-03T10:37:20.273Z,95342.03
2022-12-03T10:39:59.288Z,95354.81
2022-12-03T10:42:28.962Z,95359.28
2022-12-03T10:45:15.813Z,95363.78
2022-12-03T10:47:44.181Z,95359.69
2022-12-03T10:50:21.278Z,95352.75
2022-12-03T10:52:49.402Z,95360.41
2022-12-03T10:55:18.937Z,95343.22
2022-12-03T10:57:47.223Z,95347.72
2022-12-03T11:00:20.487Z,95345.44
2022-12-03T11:02:54.868Z,95351.00
2022-12-03T11:05:28.243Z,95338.63
2022-12-03T11:07:57.456Z,95344.06
2022-12-03T11:10:27.072Z,95329.19
2022-12-03T11:13:44.529Z,95334.66
2022-12-03T11:16:13.683Z,95328.78
2022-12-03T11:19:02.535Z,95339.56
2022-12-03T11:21:30.906Z,95341.47
2022-12-03T11:24:21.576Z,95336.84
2022-12-03T11:27:20.941Z,95335.59
2022-12-03T11:30:10.501Z,95335.19
2022-12-03T11:33:06.336Z,95333.69
2022-12-03T11:36:07.218Z,95333.56
2022-12-03T11:38:52.887Z,95330.72
2022-12-03T11:41:29.780Z,95327.44
2022-12-03T11:44:30.609Z,95328.38
2022-12-03T11:47:00.805Z,95326.63
2022-12-03T11:49:46.939Z,95322.00
2022-12-03T11:52:28.800Z,95318.88
2022-12-03T11:55:02.861Z,95312.06
2022-12-03T11:57:34.763Z,95308.66
2022-12-03T12:00:09.185Z,95312.47
2022-12-03T12:02:37.385Z,95312.88
2022-12-03T12:05:21.039Z,95306.59
2022-12-03T12:07:49.628Z,95324.31
2022-12-03T12:10:43.323Z,95309.34
2022-12-03T12:13:27.928Z,95314.91
2022-12-03T12:15:57.330Z,95312.72
2022-12-03T12:18:36.253Z,95304.81
2022-12-03T12:21:47.974Z,95310.97
2022-12-03T12:24:40.109Z,95301.03
2022-12-03T12:27:10.772Z,95291.63
2022-12-03T12:29:40.270Z,95297.75
2022-12-03T12:32:15.886Z,95297.75
2022-12-03T12:34:45.374Z,95292.03
2022-12-03T12:37:15.462Z,95297.06
2022-12-03T12:39:43.496Z,95297.06
2022-12-03T12:42:36.077Z,95292.97
2022-12-03T12:45:14.479Z,95298.69
2022-12-03T12:47:49.913Z,95298.69
2022-12-03T12:50:19.576Z,95303.34
2022-12-03T12:52:53.905Z,95292.44
2022-12-03T12:55:23.943Z,95293.81
2022-12-03T12:57:52.577Z,95299.66
2022-12-03T13:00:24.007Z,95288.63
2022-12-03T13:02:57.875Z,95287.94
2022-12-03T13:05:27.893Z,95294.47
2022-12-03T13:07:56.244Z,95301.28
2022-12-03T13:10:42.068Z,95292.97
2022-12-03T13:13:17.449Z,95285.91
2022-12-03T13:15:50.777Z,95291.09
2022-12-03T13:18:27.151Z,95289.44
2022-12-03T13:20:56.079Z,95278.28
2022-12-03T13:23:33.107Z,95273.91
2022-12-03T13:26:23.659Z,95280.97
2022-12-03T13:28:58.231Z,95277.19
2022-12-03T13:31:28.683Z,95282.22
2022-12-03T13:34:00.693Z,95279.63
2022-12-03T13:36:38.219Z,95276.59
2022-12-03T13:39:20.017Z,95274.03
2022-12-03T13:42:05.713Z,95280.97
2022-12-03T13:44:34.674Z,95282.31
2022-12-03T13:47:12.907Z,95270.78
2022-12-03T13:49:42.683Z,95272.41
2022-12-03T13:52:16.889Z,95266.44
2022-12-03T13:54:44.836Z,95256.50
2022-12-03T13:57:12.748Z,95272.84
2022-12-03T13:59:40.754Z,95269.41
2022-12-03T14:02:10.016Z,95268.50
2022-12-03T14:04:38.317Z,95270.94
2022-12-03T14:07:07.742Z,95271.31
2022-12-03T14:09:35.764Z,95278.84
2022-12-03T14:12:21.485Z,95277.72
2022-12-03T14:14:49.624Z,95277.44
2022-12-03T14:17:17.947Z,95281.53
2022-12-03T14:20:01.984Z,95287.41
2022-12-03T14:22:32.030Z,95291.19
2022-12-03T14:25:00.086Z,95296.25
2022-12-03T14:27:28.570Z,95285.34
2022-12-03T14:29:56.943Z,95294.47
2022-12-03T14:32:25.421Z,95297.59
2022-12-03T14:34:53.750Z,95291.47
2022-12-03T14:37:21.790Z,95297.47
2022-12-03T14:39:52.027Z,95301.84
2022-12-03T14:42:20.765Z,95301.44
2022-12-03T14:44:51.312Z,95292.97
2022-12-03T14:47:22.659Z,95305.63
2022-12-03T14:49:52.035Z,95310.97
2022-12-03T14:52:20.724Z,95320.63
2022-12-03T14:54:50.673Z,95317.75
2022-12-03T14:57:18.685Z,95333.41
2022-12-03T14:59:47.236Z,95321.81
2022-12-03T15:02:15.406Z,95321.72
2022-12-03T15:04:43.449Z,95321.28
2022-12-03T15:07:11.678Z,95321.97
2022-12-03T15:09:41.160Z,95335.56
2022-12-03T15:12:10.691Z,95318.00
2022-12-03T15:14:38.782Z,95332.44
2022-12-03T15:17:07.110Z,95326.03
2022-12-03T15:19:35.785Z,95320.06
2022-12-03T15:22:03.896Z,95342.78
2022-12-03T15:24:32.076Z,95323.75
2022-12-03T15:27:00.644Z,95321.69
2022-12-03T15:29:30.327Z,95331.09
2022-12-03T15:31:59.508Z,95321.81
2022-12-03T15:34:30.359Z,95343.34
2022-12-03T15:36:59.495Z,95336.81
2022-12-03T15:39:28.035Z,95337.34
2022-12-03T15:41:58.763Z,95325.91
2022-12-03T15:44:27.308Z,95338.16
2022-12-03T15:46:57.949Z,95337.03
2022-12-03T15:49:26.604Z,95328.63
2022-12-03T15:51:54.727Z,95341.28
2022-12-03T15:54:23.085Z,95338.69
2022-12-03T15:56:56.868Z,95342.38
2022-12-03T15:59:25.570Z,95336.22
2022-12-03T16:01:54.382Z,95335.44
2022-12-03T16:04:24.049Z,95338.41
2022-12-03T16:06:52.346Z,95323.94
2022-12-03T16:09:26.744Z,95342.88
2022-12-03T16:14:52.240Z,95346.81
2022-12-03T16:20:18.787Z,95336.72
2022-12-03T16:22:46.906Z,95341.31
2022-12-03T16:25:14.981Z,95345.03
2022-12-03T16:27:43.684Z,95342.16
2022-12-03T16:30:13.048Z,95343.81
2022-12-03T16:32:41.827Z,95350.63
2022-12-03T16:35:11.369Z,95346.41
2022-12-03T16:37:41.327Z,95339.84
2022-12-03T16:40:11.370Z,95342.03
2022-12-03T16:42:39.763Z,95347.47
2022-12-03T16:45:23.153Z,95350.06
2022-12-03T16:47:51.506Z,95348.97
2022-12-03T16:53:07.057Z,95352.41
2022-12-03T16:55:36.425Z,95355.03
2022-12-03T16:58:06.954Z,95362.34
2022-12-03T17:00:35.053Z,95358.41
2022-12-03T17:03:03.501Z,95355.97
2022-12-03T17:05:32.038Z,95361.28
2022-12-03T17:10:45.533Z,95358.84
2022-12-03T17:13:14.075Z,95373.81
2022-12-03T17:15:43.317Z,95366.31
2022-12-03T17:18:12.509Z,95382.25
2022-12-03T17:20:40.918Z,95377.22
2022-12-03T17:23:09.660Z,95379.50
2022-12-03T17:25:37.967Z,95381.16
2022-12-03T17:28:22.954Z,95369.97
2022-12-03T17:30:54.718Z,95374.22
2022-12-03T17:33:24.367Z,95366.31
2022-12-03T17:35:54.174Z,95369.44
2022-12-03T17:38:22.789Z,95356.63
2022-12-03T17:40:51.430Z,95367.81
2022-12-03T17:43:21.219Z,95361.28
2022-12-03T17:45:49.328Z,95368.06
2022-12-03T17:48:17.467Z,95368.91
2022-12-03T17:50:45.944Z,95362.22
2022-12-03T17:53:18.463Z,95370.81
2022-12-03T17:55:47.856Z,95371.38
2022-12-03T17:58:16.379Z,95367.28
2022-12-03T18:00:47.756Z,95372.19
2022-12-03T18:03:16.893Z,95363.06
2022-12-03T18:05:45.104Z,95374.91
2022-12-03T18:08:17.606Z,95365.91
2022-12-03T18:10:46.162Z,95376.41
2022-12-03T18:13:14.507Z,95372.56
2022-12-03T18:15:43.323Z,95367.53
2022-12-03T18:18:15.486Z,95381.16
2022-12-03T18:20:43.744Z,95384.00
2022-12-03T18:23:12.611Z,95380.88
2022-12-03T18:25:46.591Z,95377.63
2022-12-03T18:28:27.710Z,95379.25
2022-12-03T18:30:55.695Z,95384.41
2022-12-03T18:33:40.339Z,95375.16
2022-12-03T18:36:15.111Z,95376.38
2022-12-03T18:38:43.269Z,95375.16
2022-12-03T18:41:11.557Z,95378.25
2022-12-03T18:43:44.166Z,95378.34
2022-12-03T18:46:45.176Z,95379.84
2022-12-03T18:49:08.393Z,95392.50
2022-12-03T18:51:36.948Z,95380.56
2022-12-03T18:54:05.634Z,95381.75
2022-12-03T18:56:33.768Z,95371.53
2022-12-03T18:59:02.743Z,95384.88
2022-12-03T19:01:30.783Z,95376.31
2022-12-03T19:03:59.230Z,95380.78
2022-12-03T19:06:30.644Z,95388.16
2022-12-03T19:08:59.640Z,95382.16
2022-12-03T19:11:27.726Z,95384.09
2022-12-03T19:13:57.400Z,95385.97
2022-12-03T19:16:25.627Z,95387.69
2022-12-03T19:18:54.471Z,95380.47
2022-12-03T19:21:23.211Z,95390.16
2022-12-03T19:24:22.635Z,95380.22
2022-12-03T19:26:42.360Z,95389.72
2022-12-03T19:29:10.918Z,95375.06
2022-12-03T19:31:39.354Z,95391.78
2022-12-03T19:34:07.559Z,95404.84
2022-12-03T19:36:35.564Z,95398.41
2022-12-03T19:39:05.166Z,95392.16
2022-12-03T19:41:33.285Z,95395.41
2022-12-03T19:44:04.069Z,95396.19
2022-12-03T19:46:35.865Z,95389.69
2022-12-03T19:49:05.027Z,95381.63
2022-12-03T19:51:35.055Z,95397.47
2022-12-03T19:54:06.521Z,95389.78
2022-12-03T19:56:35.606Z,95385.84
2022-12-03T19:59:05.093Z,95384.59
2022-12-03T20:01:40.918Z,95388.63
2022-12-03T20:04:10.745Z,95379.94
2022-12-03T20:06:39.211Z,95389.22
2022-12-03T20:09:11.550Z,95390.66
2022-12-03T20:11:42.030Z,95376.38
2022-12-03T20:14:14.045Z,95386.31
2022-12-03T20:16:42.682Z,95381.59
2022-12-03T20:19:13.688Z,95397.38
2022-12-03T20:21:41.856Z,95390.72
2022-12-03T20:24:14.086Z,95393.88
2022-12-03T20:26:42.905Z,95391.91
2022-12-03T20:29:10.889Z,95402.69
2022-12-03T20:31:39.308Z,95394.75
2022-12-03T20:34:07.428Z,95392.59
2022-12-03T20:36:40.945Z,95380.09
2022-12-03T20:39:09.443Z,95392.22
2022-12-03T20:41:39.902Z,95382.25
2022-12-03T20:44:08.598Z,95399.03
2022-12-03T20:46:37.424Z,95396.69
2022-12-03T20:49:07.219Z,95397.09
2022-12-03T20:51:35.647Z,95407.16
2022-12-03T20:54:04.341Z,95399.31
2022-12-03T20:56:34.736Z,95406.50
2022-12-03T20:59:06.512Z,95395.63
2022-12-03T21:01:36.241Z,95387.56
2022-12-03T21:04:05.627Z,95384.25
2022-12-03T21:06:38.125Z,95390.59
2022-12-03T21:09:07.983Z,95395.38
2022-12-03T21:11:39.194Z,95385.25
2022-12-03T21:14:09.632Z,95391.66
2022-12-03T21:17:10.439Z,95393.31
2022-12-03T21:19:28.657Z,95394.88
2022-12-03T21:21:56.752Z,95389.41
2022-12-03T21:24:24.779Z,95382.59
2022-12-03T21:26:52.900Z,95376.75
2022-12-03T21:29:22.361Z,95392.88
2022-12-03T21:31:50.480Z,95383.16
2022-12-03T21:34:18.554Z,95391.25
2022-12-03T21:36:46.643Z,95390.66
2022-12-03T21:39:14.883Z,95392.81
2022-12-03T21:42:33.909Z,95394.66
2022-12-03T21:44:32.700Z,95381.06
2022-12-03T21:47:09.218Z,95392.47
2022-12-03T21:49:42.216Z,95392.81
2022-12-03T21:52:10.608Z,95382.53
2022-12-03T21:54:38.709Z,95395.75
2022-12-03T21:57:06.793Z,95387.69
2022-12-03T21:59:36.264Z,95401.31
2022-12-03T22:02:04.641Z,95395.44
2022-12-03T22:04:32.776Z,95385.16
2022-12-03T22:07:00.913Z,95383.03
2022-12-03T22:09:29.032Z,95380.00
2022-12-03T22:11:59.400Z,95389.25
2022-12-03T22:14:27.488Z,95380.25
2022-12-03T22:16:57.045Z,95384.81
2022-12-03T22:19:25.608Z,95375.66
2022-12-03T22:21:53.854Z,95373.47
2022-12-03T22:24:24.000Z,95367.16
2022-12-03T22:26:54.772Z,95369.25
2022-12-03T22:29:22.940Z,95360.97
2022-12-03T22:31:51.220Z,95381.47
2022-12-03T22:34:20.749Z,95379.81
2022-12-03T22:36:48.817Z,95371.09
2022-12-03T22:39:16.830Z,95374.41
2022-12-03T22:41:44.817Z,95368.56
2022-12-03T22:44:12.898Z,95358.03
2022-12-03T22:46:41.072Z,95365.84
2022-12-03T22:49:09.174Z,95368.66
2022-12-03T22:51:38.605Z,95370.66
2022-12-03T22:54:07.238Z,95360.13
2022-12-03T22:56:35.299Z,95362.91
2022-12-03T22:59:03.418Z,95362.38
2022-12-03T23:01:33.123Z,95348.94
2022-12-03T23:04:01.908Z,95352.19
2022-12-03T23:06:30.693Z,95363.78
2022-12-03T23:09:00.507Z,95343.53
2022-12-03T23:11:29.119Z,95349.38
2022-12-03T23:13:58.952Z,95352.19
2022-12-03T23:16:29.883Z,95351.25
2022-12-03T23:18:59.215Z,95351.25
2022-12-03T23:21:30.720Z,95346.09
2022-12-03T23:24:00.461Z,95342.72
2022-12-03T23:26:29.196Z,95344.22
2022-12-03T23:28:57.685Z,95349.13
2022-12-03T23:31:27.807Z,95340.25
2022-12-03T23:33:56.621Z,95339.06
2022-12-03T23:36:25.854Z,95344.09
2022-12-03T23:38:53.752Z,95350.44
2022-12-03T23:41:24.098Z,95350.44
2022-12-03T23:43:52.213Z,95344.59
2022-12-03T23:46:21.556Z,95348.00
2022-12-03T23:48:49.822Z,95343.53
2022-12-03T23:51:20.149Z,95350.06
2022-12-03T23:53:48.526Z,95356.53
2022-12-03T23:56:18.619Z,95351.97
2022-12-03T23:58:48.486Z,95351.03
